X  Lukk Metar værinformasjon om luftfart     LFQQ Lille-Lesquin
Temperatur
17°C Temperatur
16°C Duggpunkt
94% Luftfuktighet



Vind
21 KM/T
13 MPT
6 M/S
11 KNP



250°
VSV
Nåværende forhold

Lys Duskregn Lys Duskregn
Trykk 1015.92 (hPa) - 30 (inHg)
Sikt 3.7 (mil) - 6 (km)
Flyplass
Flyplass-kode LFQQ

Plassering: Lille-Lesquin
Avstand: 15 (km)

Metar:
LFQQ 081030Z AUTO 25011KT 6000 -DZ BKN006 OVC014 17/16 Q1016 TEMPO 3000 RADZ BKN017 OVC030

Tid: 08-07-2020 12:30 CEST